Time;durP1;ratioP1;P1;durP2;ratioP2;P2;SDS_P1;SDS_P2;PMS_P1;PMS_P2;Temp;Humidity;BMP_temperature;BMP_pressure;BME280_temperature;BME280_humidity;BME280_pressure;Samples;Min_cycle;Max_cycle;Signal;HPM_P1;HPM_P2
2023/06/23 00:00:20;;;;;;;16.30;9.40;;;;;;;-143.48;100.00;118439.88;5035066;28;20083;-80
2023/06/23 00:02:46;;;;;;;17.13;9.32;;;;;;;-143.48;100.00;118439.88;5035177;28;20029;-80
2023/06/23 00:05:12;;;;;;;15.10;9.27;;;;;;;-143.48;100.00;118439.88;5035156;28;20034;-80
2023/06/23 00:07:38;;;;;;;14.35;9.48;;;;;;;-143.48;100.00;118439.88;5016896;28;20021;-80
2023/06/23 00:10:05;;;;;;;16.42;9.55;;;;;;;-143.48;100.00;118439.88;5035356;28;20048;-80
2023/06/23 00:12:32;;;;;;;15.50;9.73;;;;;;;-143.48;100.00;118439.88;5034960;28;20048;-80
2023/06/23 00:14:58;;;;;;;14.88;9.48;;;;;;;-143.48;100.00;118439.88;5017218;28;20022;-80
2023/06/23 00:17:24;;;;;;;14.10;9.80;;;;;;;-143.48;100.00;118439.88;5016897;28;20492;-80
2023/06/23 00:19:50;;;;;;;20.35;9.80;;;;;;;-143.48;100.00;118439.88;5017194;28;20476;-80
2023/06/23 00:22:15;;;;;;;15.00;9.45;;;;;;;-143.48;100.00;118439.88;5034642;28;20013;-80
2023/06/23 00:24:40;;;;;;;14.13;9.02;;;;;;;-143.48;100.00;118439.88;5034671;28;20025;-80
2023/06/23 00:27:06;;;;;;;19.08;10.40;;;;;;;-143.48;100.00;118439.88;5017046;28;20099;-80
2023/06/23 00:29:31;;;;;;;18.40;9.75;;;;;;;-143.48;100.00;118439.88;5016528;28;20119;-80
2023/06/23 00:31:57;;;;;;;15.20;9.15;;;;;;;-143.48;100.00;118439.88;5016806;28;20024;-80
2023/06/23 00:34:22;;;;;;;14.40;9.77;;;;;;;-143.48;100.00;118439.88;5034863;28;20033;-80
2023/06/23 00:36:47;;;;;;;26.45;11.07;;;;;;;-143.48;100.00;118439.88;5016729;28;20456;-80
2023/06/23 00:39:13;;;;;;;21.48;13.35;;;;;;;-143.48;100.00;118439.88;5034470;28;20060;-80
2023/06/23 00:41:39;;;;;;;24.42;15.35;;;;;;;-143.48;100.00;118439.88;5034356;28;20100;-80
2023/06/23 00:44:07;;;;;;;24.17;15.95;;;;;;;-143.48;100.00;118439.88;5034310;28;20025;-80
2023/06/23 00:46:32;;;;;;;36.30;21.10;;;;;;;-143.48;100.00;118439.88;5016555;28;20029;-79
2023/06/23 00:49:00;;;;;;;42.38;24.48;;;;;;;-143.48;100.00;118439.88;5034365;28;20025;-79
2023/06/23 00:51:26;;;;;;;47.88;25.92;;;;;;;-143.48;100.00;118439.88;5016454;28;20022;-79
2023/06/23 00:53:53;;;;;;;46.75;26.05;;;;;;;-143.48;100.00;118439.88;5034137;28;20029;-79
2023/06/23 00:56:23;;;;;;;47.42;24.98;;;;;;;-143.48;100.00;118439.88;5034087;28;20087;-79
2023/06/23 00:58:50;;;;;;;40.75;22.48;;;;;;;-143.48;100.00;118439.88;5034627;28;20044;-80
2023/06/23 01:01:15;;;;;;;30.67;18.80;;;;;;;-143.48;100.00;118439.88;5016169;28;20029;-79
2023/06/23 01:03:41;;;;;;;27.33;17.67;;;;;;;-143.48;100.00;118439.88;5016401;28;20022;-79
2023/06/23 01:06:41;;;;;;;27.50;16.58;;;;;;;-143.48;100.00;118439.88;5016171;28;20049;-81
2023/06/23 01:09:12;;;;;;;27.77;16.58;;;;;;;-143.48;100.00;118439.88;5012855;28;20127;-80
2023/06/23 01:11:43;;;;;;;26.10;16.73;;;;;;;-143.48;100.00;118439.88;5016038;28;20026;-80
2023/06/23 01:14:32;;;;;;;27.65;16.05;;;;;;;-143.48;100.00;118439.88;5032409;28;20029;-80
2023/06/23 01:17:05;;;;;;;22.98;15.55;;;;;;;-143.48;100.00;118439.88;4988589;28;20036;-80
2023/06/23 01:19:46;;;;;;;25.35;16.55;;;;;;;-143.48;100.00;118439.88;5016038;28;20496;-80
2023/06/23 01:22:24;;;;;;;31.30;17.38;;;;;;;-143.48;100.00;118439.88;5015960;28;20021;-80
2023/06/23 01:24:59;;;;;;;29.63;17.88;;;;;;;-143.48;100.00;118439.88;5033548;28;20053;-80
2023/06/23 01:27:38;;;;;;;27.13;17.60;;;;;;;-143.48;100.00;118439.88;5033639;28;20029;-80
2023/06/23 01:30:09;;;;;;;29.08;17.80;;;;;;;-143.48;100.00;118439.88;5033331;28;20197;-80
2023/06/23 01:32:48;;;;;;;26.70;17.35;;;;;;;-143.48;100.00;118439.88;5015685;28;20033;-80
2023/06/23 01:35:22;;;;;;;31.00;18.17;;;;;;;-143.48;100.00;118439.88;5033343;28;20025;-80
2023/06/23 01:37:51;;;;;;;30.17;18.65;;;;;;;-143.48;100.00;118439.88;5033320;28;20087;-80
2023/06/23 01:40:18;;;;;;;32.78;18.35;;;;;;;-143.48;100.00;118439.88;5015241;28;20076;-80
2023/06/23 01:42:54;;;;;;;29.85;18.77;;;;;;;-143.48;100.00;118439.88;5015328;28;20032;-80
2023/06/23 01:45:22;;;;;;;29.88;18.55;;;;;;;-143.48;100.00;118439.88;5015288;28;20477;-80
2023/06/23 01:47:49;;;;;;;29.02;19.38;;;;;;;-143.48;100.00;118439.88;5033291;28;20147;-80
2023/06/23 01:50:18;;;;;;;29.88;18.35;;;;;;;-143.48;100.00;118439.88;5033270;28;20036;-80
2023/06/23 01:52:45;;;;;;;30.20;18.65;;;;;;;-143.48;100.00;118439.88;5015534;28;20021;-80
2023/06/23 01:55:12;;;;;;;29.40;18.52;;;;;;;-143.48;100.00;118439.88;5033147;28;20369;-80
2023/06/23 01:57:40;;;;;;;30.30;18.67;;;;;;;-143.48;100.00;118439.88;5033223;28;20369;-80
2023/06/23 02:00:13;;;;;;;34.03;18.67;;;;;;;-143.48;100.00;118439.88;5015364;28;20025;-80
2023/06/23 02:02:42;;;;;;;36.95;18.52;;;;;;;-143.48;100.00;118439.88;5033257;28;20479;-80
2023/06/23 02:05:09;;;;;;;33.78;18.40;;;;;;;-143.48;100.00;118439.88;5015304;28;20022;-80
2023/06/23 02:07:36;;;;;;;31.73;19.10;;;;;;;-143.48;100.00;118439.88;5033057;28;20075;-80
2023/06/23 02:10:05;;;;;;;28.92;18.50;;;;;;;-143.48;100.00;118439.88;5015752;28;20044;-80
2023/06/23 02:12:33;;;;;;;32.13;18.77;;;;;;;-143.48;100.00;118439.88;5015515;28;20025;-80
2023/06/23 02:15:00;;;;;;;31.05;18.75;;;;;;;-143.48;100.00;118439.88;5015272;28;20088;-80
2023/06/23 02:17:26;;;;;;;33.95;19.45;;;;;;;-143.48;100.00;118439.88;5015343;28;20022;-80
2023/06/23 02:19:53;;;;;;;31.58;18.90;;;;;;;-143.48;100.00;118439.88;5035696;28;20377;-80
2023/06/23 02:22:23;;;;;;;31.23;18.95;;;;;;;-143.48;100.00;118439.88;5019111;28;20029;-80
2023/06/23 02:24:50;;;;;;;35.17;19.75;;;;;;;-143.48;100.00;118439.88;5002844;28;20026;-79
2023/06/23 02:27:17;;;;;;;32.50;19.45;;;;;;;-143.48;100.00;118439.88;5036727;28;20033;-80
2023/06/23 02:29:44;;;;;;;31.88;19.40;;;;;;;-143.48;100.00;118439.88;5036469;28;20053;-79
2023/06/23 02:32:16;;;;;;;41.33;20.27;;;;;;;-143.48;100.00;118439.88;5018874;28;20047;-79
2023/06/23 02:34:45;;;;;;;33.70;19.85;;;;;;;-143.48;100.00;118439.88;5036681;28;20025;-79
2023/06/23 02:37:11;;;;;;;37.78;20.33;;;;;;;-143.48;100.00;118439.88;5018860;28;20036;-80
2023/06/23 02:39:42;;;;;;;32.50;19.58;;;;;;;-143.48;100.00;118439.88;5002622;28;20048;-80
2023/06/23 02:42:12;;;;;;;31.25;20.13;;;;;;;-143.48;100.00;118439.88;5036465;28;20029;-79
2023/06/23 02:44:42;;;;;;;37.63;20.70;;;;;;;-143.48;100.00;118439.88;5036383;28;20059;-81
2023/06/23 02:47:13;;;;;;;32.88;20.10;;;;;;;-143.48;100.00;118439.88;5018511;28;20480;-80
2023/06/23 02:49:39;;;;;;;35.75;20.33;;;;;;;-143.48;100.00;118439.88;5036310;28;20029;-80
2023/06/23 02:52:08;;;;;;;34.08;20.05;;;;;;;-143.48;100.00;118439.88;5036213;28;20029;-80
2023/06/23 02:54:40;;;;;;;36.08;20.15;;;;;;;-143.48;100.00;118439.88;5036183;28;20040;-79
2023/06/23 02:57:10;;;;;;;36.65;20.38;;;;;;;-143.48;100.00;118439.88;5018400;28;20025;-78
2023/06/23 02:59:37;;;;;;;36.30;21.08;;;;;;;-143.48;100.00;118439.88;5018275;28;20057;-78
2023/06/23 03:02:07;;;;;;;42.90;21.48;;;;;;;-143.48;100.00;118439.88;5018107;28;20029;-78
2023/06/23 03:04:34;;;;;;;37.90;21.08;;;;;;;-143.48;100.00;118439.88;5035957;28;20056;-78
2023/06/23 03:07:01;;;;;;;36.00;21.25;;;;;;;-143.48;100.00;118439.88;5018237;28;20036;-78
2023/06/23 03:09:26;;;;;;;40.30;21.73;;;;;;;-143.48;100.00;118439.88;5018231;28;20017;-80
2023/06/23 03:11:52;;;;;;;39.60;20.73;;;;;;;-143.48;100.00;118439.88;5018372;28;20499;-78
2023/06/23 03:14:17;;;;;;;36.28;22.10;;;;;;;-143.48;100.00;118439.88;5035875;28;20136;-79
2023/06/23 03:17:15;;;;;;;45.17;22.85;;;;;;;-143.48;100.00;118439.88;5018169;28;20033;-79
2023/06/23 03:19:50;;;;;;;43.65;22.35;;;;;;;-143.48;100.00;118439.88;5035749;28;20029;-79
2023/06/23 03:22:28;;;;;;;43.55;22.05;;;;;;;-143.48;100.00;118439.88;5017906;28;20030;-79
2023/06/23 03:25:02;;;;;;;40.38;22.15;;;;;;;-143.48;100.00;118439.88;5035712;28;20066;-79
2023/06/23 03:27:29;;;;;;;37.15;20.67;;;;;;;-143.48;100.00;118439.88;5035674;28;20048;-79
2023/06/23 03:30:30;;;;;;;39.75;21.83;;;;;;;-143.48;100.00;118439.88;5035165;28;20049;-79
2023/06/23 03:33:00;;;;;;;41.45;21.23;;;;;;;-143.48;100.00;118439.88;4996669;28;20037;-79
2023/06/23 03:35:30;;;;;;;37.15;21.25;;;;;;;-143.48;100.00;118439.88;5017677;28;20056;-78
2023/06/23 03:38:01;;;;;;;43.72;22.67;;;;;;;-143.48;100.00;118439.88;5035598;28;20396;-78
2023/06/23 03:40:33;;;;;;;38.63;21.30;;;;;;;-143.48;100.00;118439.88;5035407;28;20096;-79
2023/06/23 03:43:06;;;;;;;40.35;21.23;;;;;;;-143.48;100.00;118439.88;5035331;28;20025;-79
2023/06/23 03:45:34;;;;;;;37.63;21.20;;;;;;;-143.48;100.00;118439.88;5017591;28;20087;-79
2023/06/23 03:48:03;;;;;;;38.03;20.88;;;;;;;-143.48;100.00;118439.88;5034210;28;20029;-79
2023/06/23 03:50:34;;;;;;;41.97;21.98;;;;;;;-143.48;100.00;118439.88;5035004;28;20432;-79
2023/06/23 03:53:02;;;;;;;46.83;23.48;;;;;;;-143.48;100.00;118439.88;5017355;28;20026;-79
2023/06/23 03:55:31;;;;;;;45.10;22.70;;;;;;;-143.48;100.00;118439.88;5035127;28;20425;-79
2023/06/23 03:57:59;;;;;;;46.90;22.98;;;;;;;-143.48;100.00;118439.88;5035042;28;20484;-80
2023/06/23 04:00:26;;;;;;;48.08;23.98;;;;;;;-143.48;100.00;118439.88;5017444;28;20098;-79
2023/06/23 04:02:53;;;;;;;44.05;23.33;;;;;;;-143.48;100.00;118439.88;5017267;28;20091;-79
2023/06/23 04:05:22;;;;;;;47.03;24.40;;;;;;;-143.48;100.00;118439.88;5034876;28;20037;-79
2023/06/23 04:07:49;;;;;;;49.70;24.83;;;;;;;-143.48;100.00;118439.88;5017146;28;20026;-80
2023/06/23 04:10:19;;;;;;;45.75;23.33;;;;;;;-143.48;100.00;118439.88;5017193;28;20092;-79
2023/06/23 04:12:46;;;;;;;44.80;23.00;;;;;;;-143.48;100.00;118439.88;5016930;28;20389;-80
2023/06/23 04:15:13;;;;;;;52.65;24.00;;;;;;;-143.48;100.00;118439.88;5035062;28;20029;-79
2023/06/23 04:17:42;;;;;;;44.08;22.20;;;;;;;-143.48;100.00;118439.88;5034800;28;20029;-79
2023/06/23 04:20:09;;;;;;;48.55;23.20;;;;;;;-143.48;100.00;118439.88;5016694;28;20025;-79
2023/06/23 04:22:38;;;;;;;43.95;21.42;;;;;;;-143.48;100.00;118439.88;5034493;28;20025;-80
2023/06/23 04:25:06;;;;;;;46.83;22.80;;;;;;;-143.48;100.00;118439.88;5016771;28;20021;-80
2023/06/23 04:27:34;;;;;;;44.28;22.75;;;;;;;-143.48;100.00;118439.88;5034389;28;20033;-80
2023/06/23 04:30:01;;;;;;;45.28;22.63;;;;;;;-143.48;100.00;118439.88;5016467;28;20102;-80
2023/06/23 04:32:27;;;;;;;45.55;22.90;;;;;;;-143.48;100.00;118439.88;5016587;28;20469;-80
2023/06/23 04:34:53;;;;;;;44.13;22.98;;;;;;;-143.48;100.00;118439.88;5016588;28;20069;-80
2023/06/23 04:37:28;;;;;;;42.25;21.70;;;;;;;-143.48;100.00;118439.88;5016451;28;20033;-80
2023/06/23 04:39:58;;;;;;;41.13;21.85;;;;;;;-143.48;100.00;118439.88;5034174;28;20490;-80
2023/06/23 04:42:32;;;;;;;42.58;22.38;;;;;;;-143.48;100.00;118439.88;5033479;28;20036;-80
2023/06/23 04:45:01;;;;;;;47.78;22.35;;;;;;;-143.48;100.00;118439.88;5016376;28;20473;-80
2023/06/23 04:47:32;;;;;;;44.42;22.00;;;;;;;-143.48;100.00;118439.88;5016372;28;20079;-80
2023/06/23 04:50:02;;;;;;;48.13;22.17;;;;;;;-143.48;100.00;118439.88;5016149;28;20044;-80
2023/06/23 04:52:29;;;;;;;47.10;22.92;;;;;;;-143.48;100.00;118439.88;5016172;28;20028;-80
2023/06/23 04:54:59;;;;;;;41.63;22.92;;;;;;;-143.48;100.00;118439.88;5034034;28;20035;-80
2023/06/23 04:57:28;;;;;;;47.45;22.40;;;;;;;-143.48;100.00;118439.88;5033678;28;20357;-80
2023/06/23 04:59:58;;;;;;;48.30;23.33;;;;;;;-143.48;100.00;118439.88;5016084;28;20388;-80
2023/06/23 05:02:25;;;;;;;39.47;22.08;;;;;;;-143.48;100.00;118439.88;5015981;28;20025;-80
2023/06/23 05:04:52;;;;;;;43.10;21.90;;;;;;;-143.48;100.00;118439.88;5016026;28;20072;-80
2023/06/23 05:07:18;;;;;;;47.42;22.27;;;;;;;-143.48;100.00;118439.88;5033970;28;20114;-80
2023/06/23 05:09:47;;;;;;;48.38;22.23;;;;;;;-143.48;100.00;118439.88;5033912;28;20031;-80
2023/06/23 05:12:16;;;;;;;43.47;21.85;;;;;;;-143.48;100.00;118439.88;5033432;28;20013;-80
2023/06/23 05:14:43;;;;;;;40.28;21.60;;;;;;;-143.48;100.00;118439.88;5015815;28;20048;-80
2023/06/23 05:17:11;;;;;;;43.40;21.80;;;;;;;-143.48;100.00;118439.88;5033657;28;20097;-80
2023/06/23 05:19:38;;;;;;;42.10;21.25;;;;;;;-143.48;100.00;118439.88;5015784;28;20393;-80
2023/06/23 05:22:08;;;;;;;43.13;21.20;;;;;;;-143.48;100.00;118439.88;5015836;28;20425;-80
2023/06/23 05:24:40;;;;;;;42.72;21.23;;;;;;;-143.48;100.00;118439.88;5033506;28;20025;-80
2023/06/23 05:27:08;;;;;;;45.17;21.30;;;;;;;-143.48;100.00;118439.88;5015633;28;20025;-80
2023/06/23 05:29:40;;;;;;;36.85;20.58;;;;;;;-143.48;100.00;118439.88;5033184;28;20132;-80
2023/06/23 05:32:09;;;;;;;35.78;20.65;;;;;;;-143.48;100.00;118439.88;5015785;28;20485;-80
2023/06/23 05:34:35;;;;;;;45.45;20.30;;;;;;;-143.48;100.00;118439.88;5033335;28;20120;-80
2023/06/23 05:37:02;;;;;;;40.25;21.00;;;;;;;-143.48;100.00;118439.88;5033216;28;20049;-80
2023/06/23 05:39:29;;;;;;;36.83;20.52;;;;;;;-143.48;100.00;118439.88;5015458;28;20021;-81
2023/06/23 05:41:55;;;;;;;33.95;19.60;;;;;;;-143.48;90.66;118439.88;5015439;28;20033;-81
2023/06/23 05:44:20;;;;;;;31.80;18.33;;;;;;;-143.48;83.39;118439.88;5033259;28;20093;-80
2023/06/23 05:46:48;;;;;;;31.00;18.20;;;;;;;-143.48;75.79;118439.88;5015425;28;20120;-81
2023/06/23 05:49:17;;;;;;;29.10;17.65;;;;;;;-143.48;75.79;118439.88;5015273;28;20483;-81
2023/06/23 05:51:44;;;;;;;32.25;18.05;;;;;;;-143.48;74.32;118439.88;5015595;28;20110;-81
2023/06/23 05:54:11;;;;;;;25.70;16.52;;;;;;;-143.48;73.16;118439.88;5018240;28;20056;-81
2023/06/23 05:56:43;;;;;;;26.00;16.20;;;;;;;-143.48;71.43;118439.88;5019712;28;20021;-81
2023/06/23 05:59:38;;;;;;;25.50;15.60;;;;;;;-143.48;73.42;118439.88;5037471;28;20033;-81
2023/06/23 06:02:05;;;;;;;26.55;15.43;;;;;;;-143.48;73.94;118439.88;5014530;28;20044;-81
2023/06/23 06:04:34;;;;;;;25.80;15.63;;;;;;;-143.48;69.95;118439.88;5019556;28;20492;-81
2023/06/23 06:07:01;;;;;;;23.55;15.20;;;;;;;-143.48;70.25;118439.88;5019797;28;20018;-80
2023/06/23 06:09:33;;;;;;;23.60;14.98;;;;;;;-143.48;80.05;118439.88;5003099;28;20029;-79
2023/06/23 06:11:59;;;;;;;21.05;14.48;;;;;;;-143.48;73.93;118439.88;5037158;28;20068;-80
2023/06/23 06:14:27;;;;;;;19.67;13.25;;;;;;;-143.48;67.29;118439.88;5019780;28;20037;-79
2023/06/23 06:16:54;;;;;;;21.70;11.88;;;;;;;-143.48;68.77;118439.88;5037017;28;20033;-80
2023/06/23 06:19:24;;;;;;;20.10;10.93;;;;;;;-143.48;71.82;118439.88;5019369;28;20477;-80
2023/06/23 06:21:54;;;;;;;16.50;11.00;;;;;;;-143.48;64.35;118439.88;5019174;28;20508;-79
2023/06/23 06:24:21;;;;;;;18.88;11.43;;;;;;;-143.48;66.27;118439.88;5037080;28;20025;-80
2023/06/23 06:26:49;;;;;;;18.50;11.57;;;;;;;-143.48;64.49;118439.88;5036751;28;20022;-80
2023/06/23 06:29:17;;;;;;;17.15;10.82;;;;;;;-143.48;65.06;118439.88;5019070;28;20032;-80
2023/06/23 06:31:45;;;;;;;17.67;11.10;;;;;;;-143.48;66.17;118439.88;5002784;28;20029;-80
2023/06/23 06:34:14;;;;;;;14.40;10.30;;;;;;;-143.48;66.86;118439.88;5036695;28;20100;-79
2023/06/23 06:36:41;;;;;;;18.92;10.63;;;;;;;-143.48;67.23;118439.88;5036605;28;20059;-79
2023/06/23 06:39:07;;;;;;;15.23;9.90;;;;;;;-143.48;69.71;118439.88;5036702;28;20073;-80
2023/06/23 06:41:35;;;;;;;15.40;9.50;;;;;;;-143.48;71.34;118439.88;5036558;28;20036;-79
2023/06/23 06:44:02;;;;;;;12.63;7.55;;;;;;;-143.48;69.59;118439.88;5036654;28;20028;-80
2023/06/23 06:46:29;;;;;;;13.25;8.57;;;;;;;-143.48;71.09;118439.88;5036605;28;20021;-80
2023/06/23 06:48:59;;;;;;;16.42;9.52;;;;;;;-143.48;72.24;118439.88;5018528;28;20060;-80
2023/06/23 06:51:26;;;;;;;15.50;9.25;;;;;;;-143.48;70.87;118439.88;5018858;28;20029;-80
2023/06/23 06:53:52;;;;;;;14.82;8.98;;;;;;;-143.48;68.97;118439.88;5018668;28;20116;-80
2023/06/23 06:56:18;;;;;;;13.85;7.47;;;;;;;-143.48;67.82;118439.88;5036477;28;20056;-81
2023/06/23 06:58:44;;;;;;;13.43;8.52;;;;;;;-143.48;73.99;118439.88;5002088;28;20454;-77
2023/06/23 07:01:09;;;;;;;13.93;8.13;;;;;;;-143.48;68.36;118439.88;5036353;28;20030;-80
2023/06/23 07:03:35;;;;;;;18.45;7.78;;;;;;;-143.48;70.18;118439.88;5018689;28;20033;-80
2023/06/23 07:06:00;;;;;;;10.70;7.18;;;;;;;-143.48;66.12;118439.88;5035852;28;20120;-80
2023/06/23 07:08:26;;;;;;;11.98;7.47;;;;;;;-143.48;66.66;118439.88;5036314;28;20534;-80
2023/06/23 07:10:51;;;;;;;13.65;7.20;;;;;;;-143.48;64.01;118439.88;5018255;28;20057;-81
2023/06/23 07:13:17;;;;;;;7.82;5.88;;;;;;;-143.48;64.14;118439.88;5019586;28;20026;-81
2023/06/23 07:15:43;;;;;;;11.10;6.45;;;;;;;-143.48;63.11;118439.88;5036076;28;20100;-80
2023/06/23 07:18:08;;;;;;;9.80;6.55;;;;;;;-143.48;63.27;118439.88;5036346;28;20035;-84
2023/06/23 07:20:33;;;;;;;13.32;6.63;;;;;;;-143.48;65.22;118439.88;5035615;28;20033;-79
2023/06/23 07:22:59;;;;;;;8.35;5.90;;;;;;;-143.48;62.33;118439.88;5018266;28;20029;-80
2023/06/23 07:25:24;;;;;;;10.98;6.38;;;;;;;-143.48;62.70;118439.88;5018022;28;20025;-79
2023/06/23 07:27:49;;;;;;;13.15;6.07;;;;;;;-143.48;60.54;118439.88;5018037;28;20084;-80
2023/06/23 07:30:16;;;;;;;9.07;4.63;;;;;;;-143.48;61.95;118439.88;5017769;28;20568;-79
2023/06/23 07:32:45;;;;;;;12.45;7.85;;;;;;;-143.48;63.72;118439.88;5018107;28;20124;-81
2023/06/23 07:35:10;;;;;;;11.45;7.32;;;;;;;-143.48;58.80;118439.88;5018217;28;20032;-79
2023/06/23 07:37:37;;;;;;;12.88;7.65;;;;;;;-143.48;61.71;118439.88;5017505;28;20033;-78
2023/06/23 07:40:04;;;;;;;11.60;7.15;;;;;;;-143.48;63.34;118439.88;5018617;28;20029;-79
2023/06/23 07:42:29;;;;;;;13.32;6.90;;;;;;;-143.48;60.00;118439.88;5034687;28;20486;-80
2023/06/23 07:44:56;;;;;;;11.98;6.28;;;;;;;-143.48;61.06;118439.88;5017846;28;20025;-83
2023/06/23 07:47:21;;;;;;;6.95;4.90;;;;;;;-143.48;60.51;118439.88;5018869;28;20025;-81
2023/06/23 07:49:46;;;;;;;10.27;5.85;;;;;;;-143.48;57.00;118439.88;5017944;28;20120;-82
2023/06/23 07:52:12;;;;;;;10.27;5.97;;;;;;;-143.48;57.05;118439.88;5017859;28;20032;-82
2023/06/23 07:54:37;;;;;;;8.55;5.32;;;;;;;-143.48;54.90;118439.88;5017547;28;20022;-82
2023/06/23 07:57:07;;;;;;;8.88;4.60;;;;;;;-143.48;56.03;118439.88;5018079;28;20047;-82
2023/06/23 07:59:33;;;;;;;6.00;3.92;;;;;;;-143.48;55.96;118439.88;5036730;28;20512;-81
2023/06/23 08:01:58;;;;;;;7.15;4.65;;;;;;;-143.48;56.26;118439.88;5019309;28;20159;-81
2023/06/23 08:04:24;;;;;;;9.75;4.68;;;;;;;-143.48;54.34;118439.88;5017622;28;20469;-81
2023/06/23 08:06:49;;;;;;;11.65;5.53;;;;;;;-143.48;55.41;118439.88;5018165;28;20080;-82
2023/06/23 08:09:16;;;;;;;8.00;4.60;;;;;;;-143.48;53.00;118439.88;5018379;28;20028;-81
2023/06/23 08:11:42;;;;;;;8.45;4.72;;;;;;;-143.48;54.36;118439.88;5035261;28;20022;-82
2023/06/23 08:14:08;;;;;;;10.15;4.25;;;;;;;-143.48;52.31;118439.88;5035546;28;20025;-80
2023/06/23 08:16:34;;;;;;;9.80;4.70;;;;;;;-143.48;53.28;118439.88;5016898;28;20021;-81
2023/06/23 08:18:59;;;;;;;13.05;4.80;;;;;;;-143.48;50.37;118439.88;5001695;28;20029;-84
2023/06/23 08:21:25;;;;;;;10.73;4.30;;;;;;;-143.48;50.28;118439.88;5035484;28;20033;-82
2023/06/23 08:23:50;;;;;;;7.03;3.72;;;;;;;-143.48;48.58;118439.88;5016180;28;20032;-81
2023/06/23 08:26:18;;;;;;;8.57;3.60;;;;;;;-143.48;48.71;118439.88;5016672;28;20034;-82
2023/06/23 08:28:43;;;;;;;8.80;2.95;;;;;;;-143.48;49.01;118439.88;5016897;28;20036;-81
2023/06/23 08:31:08;;;;;;;7.78;3.83;;;;;;;-143.48;49.42;118439.88;5000262;28;20042;-83
2023/06/23 08:33:35;;;;;;;6.32;4.40;;;;;;;-143.48;49.76;118439.88;5014595;28;20024;-82
2023/06/23 08:36:01;;;;;;;8.05;4.53;;;;;;;-143.48;51.95;118439.88;4997013;28;20489;-81
2023/06/23 08:38:27;;;;;;;8.57;3.65;;;;;;;-143.48;50.61;118439.88;4997293;28;20022;-81
2023/06/23 08:40:56;;;;;;;6.05;4.05;;;;;;;-143.48;48.50;118439.88;4997017;28;20098;-82
2023/06/23 08:43:28;;;;;;;8.02;3.72;;;;;;;-143.48;48.45;118439.88;4997267;28;20026;-82
2023/06/23 08:45:58;;;;;;;5.97;3.70;;;;;;;-143.48;49.20;118439.88;4997547;28;20029;-83
2023/06/23 08:48:26;;;;;;;5.00;3.22;;;;;;;-143.48;48.60;118439.88;4998771;28;20099;-81
2023/06/23 08:50:54;;;;;;;9.98;3.92;;;;;;;-143.48;48.48;118439.88;4996837;28;20018;-83
2023/06/23 08:53:21;;;;;;;6.97;3.90;;;;;;;-143.48;46.24;118439.88;4997944;28;20375;-81
2023/06/23 08:55:54;;;;;;;10.15;4.20;;;;;;;-143.48;48.82;118439.88;4997407;28;20540;-83
2023/06/23 08:58:21;;;;;;;8.95;4.25;;;;;;;-143.48;48.54;118439.88;4996328;28;20113;-84
2023/06/23 09:00:47;;;;;;;9.60;3.35;;;;;;;-143.48;46.74;118439.88;4996717;28;20049;-82
2023/06/23 09:03:13;;;;;;;7.43;4.07;;;;;;;-143.48;45.82;118439.88;4996644;28;20052;-82
2023/06/23 09:05:41;;;;;;;8.35;3.38;;;;;;;-143.48;46.66;118439.88;4980169;28;20034;-84
2023/06/23 09:08:07;;;;;;;6.78;3.20;;;;;;;-143.48;42.68;118439.88;4998206;28;20022;-86
2023/06/23 09:10:32;;;;;;;6.18;3.20;;;;;;;-143.48;45.86;118439.88;5016327;28;20029;-86
2023/06/23 09:13:01;;;;;;;8.30;3.50;;;;;;;-143.48;44.17;118439.88;4997645;28;20029;-83
2023/06/23 09:15:27;;;;;;;10.40;3.55;;;;;;;-143.48;44.38;118439.88;4998747;28;20026;-85
2023/06/23 09:17:54;;;;;;;8.10;3.08;;;;;;;-143.48;44.76;118439.88;5015659;28;20030;-88
2023/06/23 09:20:19;;;;;;;6.85;3.25;;;;;;;-143.48;43.86;118439.88;4998288;28;20076;-84
2023/06/23 09:22:45;;;;;;;6.03;3.00;;;;;;;-143.48;44.06;118439.88;4998180;28;20096;-83
2023/06/23 09:25:41;;;;;;;7.28;3.20;;;;;;;-143.48;42.24;118439.88;4997479;28;20109;-84
2023/06/23 09:28:06;;;;;;;5.45;2.88;;;;;;;-143.48;40.61;118439.88;5015303;28;20477;-84
2023/06/23 09:30:35;;;;;;;5.43;2.70;;;;;;;-143.48;42.16;118439.88;5027145;28;20049;-84
2023/06/23 09:33:07;;;;;;;6.68;3.00;;;;;;;-143.48;40.16;118439.88;5018296;28;20044;-84
2023/06/23 09:35:32;;;;;;;4.35;2.75;;;;;;;-143.48;40.59;118439.88;5003735;28;20037;-84
2023/06/23 09:37:58;;;;;;;4.65;2.50;;;;;;;-143.48;38.47;118439.88;5034646;28;20028;-84
2023/06/23 09:40:27;;;;;;;6.10;2.70;;;;;;;-143.48;41.85;118439.88;5017912;28;20022;-86
2023/06/23 09:42:57;;;;;;;6.40;2.60;;;;;;;-143.48;39.78;118439.88;5018098;28;20475;-85
2023/06/23 09:45:23;;;;;;;4.57;3.10;;;;;;;-143.48;37.40;118439.88;5018700;28;20021;-87
2023/06/23 09:47:49;;;;;;;5.40;2.60;;;;;;;-143.48;37.45;118439.88;5020586;28;20025;-85
2023/06/23 09:50:16;;;;;;;4.15;2.65;;;;;;;-143.48;39.23;118439.88;5018403;28;20119;-86
2023/06/23 09:52:41;;;;;;;6.07;2.80;;;;;;;-143.48;37.33;118439.88;5019359;28;20393;-87
2023/06/23 09:55:07;;;;;;;9.35;2.75;;;;;;;-143.48;39.23;118439.88;5017686;28;20025;-83
2023/06/23 09:57:32;;;;;;;5.43;2.78;;;;;;;-143.48;38.78;118439.88;5035365;28;20527;-85
2023/06/23 09:59:58;;;;;;;4.90;2.50;;;;;;;-143.48;38.69;118439.88;5019046;28;20116;-86
2023/06/23 10:02:29;;;;;;;7.95;2.70;;;;;;;-143.48;37.45;118439.88;5019969;28;20109;-83
2023/06/23 10:05:03;;;;;;;5.80;2.85;;;;;;;-143.48;37.84;118439.88;5018360;28;20029;-84
2023/06/23 10:07:29;;;;;;;5.15;2.90;;;;;;;-143.48;38.38;118439.88;5017989;28;20045;-85
2023/06/23 10:10:01;;;;;;;11.95;2.55;;;;;;;-143.48;38.19;118439.88;5016746;28;20030;-84
2023/06/23 10:12:28;;;;;;;5.68;2.63;;;;;;;-143.48;35.96;118439.88;5016511;28;20029;-84
2023/06/23 10:14:55;;;;;;;4.53;2.30;;;;;;;-143.48;33.57;118439.88;4999632;28;20029;-85
2023/06/23 10:17:21;;;;;;;6.25;2.40;;;;;;;-143.48;35.78;118439.88;5043503;28;20030;-83
2023/06/23 10:19:48;;;;;;;6.57;2.70;;;;;;;-143.48;35.07;118439.88;5023020;28;20087;-84
2023/06/23 10:22:18;;;;;;;6.82;2.50;;;;;;;-143.48;35.38;118439.88;5019164;28;20028;-87
2023/06/23 10:24:46;;;;;;;4.93;2.58;;;;;;;-143.48;33.74;118439.88;5016813;28;20025;-83
2023/06/23 10:27:16;;;;;;;3.95;2.28;;;;;;;-143.48;34.84;118439.88;5017240;28;20026;-83
2023/06/23 10:29:46;;;;;;;5.70;2.58;;;;;;;-143.48;34.67;118439.88;5033959;28;20042;-83
2023/06/23 10:32:13;;;;;;;4.43;2.65;;;;;;;-143.48;34.12;118439.88;5002115;28;20387;-85
2023/06/23 10:34:43;;;;;;;5.10;2.60;;;;;;;-143.48;34.89;118439.88;5020347;28;20030;-84
2023/06/23 10:37:14;;;;;;;9.15;2.35;;;;;;;-143.48;34.61;118439.88;5034840;28;20026;-83
2023/06/23 10:39:48;;;;;;;5.93;2.55;;;;;;;-143.48;33.90;118439.88;5035422;28;20104;-81
2023/06/23 10:42:15;;;;;;;6.82;2.55;;;;;;;-143.48;32.76;118439.88;5038824;28;20060;-82
2023/06/23 10:44:41;;;;;;;7.35;2.55;;;;;;;-143.48;33.29;118439.88;5037651;28;20039;-81
2023/06/23 10:47:08;;;;;;;6.47;2.58;;;;;;;-143.48;34.04;118439.88;5019154;28;20033;-86
2023/06/23 10:49:33;;;;;;;5.88;3.03;;;;;;;-143.48;33.54;118439.88;5039039;28;20108;-84
2023/06/23 10:52:00;;;;;;;10.45;2.80;;;;;;;-143.48;34.51;118439.88;5020743;28;20457;-84
2023/06/23 10:54:28;;;;;;;7.75;2.63;;;;;;;-143.48;31.86;118439.88;5039027;28;20053;-83
2023/06/23 10:56:54;;;;;;;5.00;2.67;;;;;;;-143.48;34.72;118439.88;5020851;28;20025;-83
2023/06/23 10:59:24;;;;;;;7.45;2.83;;;;;;;-143.48;35.62;118439.88;5039097;28;20021;-86